createdAt,value
2018-07-03T00:00:06.510Z,2.20
2018-07-03T00:02:42.539Z,2.30
2018-07-03T00:05:18.101Z,2.17
2018-07-03T00:07:54.983Z,2.10
2018-07-03T00:10:30.345Z,2.40
2018-07-03T00:13:06.869Z,2.20
2018-07-03T00:15:46.323Z,2.40
2018-07-03T00:18:21.876Z,2.00
2018-07-03T00:23:21.414Z,2.27
2018-07-03T00:25:57.766Z,2.10
2018-07-03T00:28:32.683Z,2.10
2018-07-03T00:31:09.349Z,2.20
2018-07-03T00:33:46.037Z,2.40
2018-07-03T00:36:21.780Z,2.37
2018-07-03T00:38:57.581Z,2.30
2018-07-03T00:41:33.658Z,2.20
2018-07-03T00:44:09.952Z,2.00
2018-07-03T00:46:47.551Z,2.30
2018-07-03T00:49:24.832Z,2.37
2018-07-03T00:52:00.272Z,2.27
2018-07-03T00:54:37.474Z,2.30
2018-07-03T00:57:14.216Z,2.40
2018-07-03T01:00:02.491Z,2.70
2018-07-03T01:02:38.434Z,2.40
2018-07-03T01:05:14.896Z,2.37
2018-07-03T01:07:50.361Z,2.40
2018-07-03T01:10:27.637Z,2.20
2018-07-03T01:13:05.034Z,2.23
2018-07-03T01:15:40.467Z,2.60
2018-07-03T01:18:17.448Z,2.70
2018-07-03T01:20:54.510Z,2.10
2018-07-03T01:23:29.566Z,2.50
2018-07-03T01:26:06.335Z,2.60
2018-07-03T01:28:41.963Z,2.27
2018-07-03T01:31:17.623Z,2.10
2018-07-03T01:33:55.938Z,2.30
2018-07-03T01:36:31.485Z,2.40
2018-07-03T01:39:08.567Z,2.47
2018-07-03T01:41:45.249Z,2.40
2018-07-03T01:44:20.464Z,2.57
2018-07-03T01:46:58.581Z,2.50
2018-07-03T01:49:34.261Z,2.33
2018-07-03T01:52:11.187Z,2.40
2018-07-03T01:54:46.921Z,2.50
2018-07-03T01:57:22.291Z,2.40
2018-07-03T01:59:59.267Z,2.30
2018-07-03T02:02:37.747Z,2.83
2018-07-03T02:05:14.813Z,2.50
2018-07-03T02:07:54.514Z,2.60
2018-07-03T02:10:30.266Z,2.70
2018-07-03T02:13:07.237Z,2.57
2018-07-03T02:15:42.473Z,2.60
2018-07-03T02:18:17.819Z,2.50
2018-07-03T02:20:55.023Z,2.80
2018-07-03T02:23:30.861Z,2.60
2018-07-03T02:26:07.475Z,2.60
2018-07-03T02:28:43.487Z,2.80
2018-07-03T02:31:18.598Z,2.70
2018-07-03T02:33:54.255Z,2.60
2018-07-03T02:36:29.846Z,2.50
2018-07-03T02:39:07.195Z,2.80
2018-07-03T02:41:42.426Z,2.70
2018-07-03T02:44:18.294Z,3.00
2018-07-03T02:46:55.983Z,2.80
2018-07-03T02:49:33.022Z,2.77
2018-07-03T02:52:09.106Z,2.83
2018-07-03T02:54:47.379Z,2.43
2018-07-03T02:57:24.945Z,2.50
2018-07-03T03:00:00.246Z,2.70
2018-07-03T03:02:37.874Z,2.67
2018-07-03T03:05:12.831Z,2.50
2018-07-03T03:07:48.819Z,2.60
2018-07-03T03:10:25.220Z,2.60
2018-07-03T03:13:03.272Z,2.60
2018-07-03T03:15:38.346Z,2.87
2018-07-03T03:18:14.896Z,2.73
2018-07-03T03:20:49.002Z,2.70
2018-07-03T03:23:27.141Z,2.70
2018-07-03T03:26:05.648Z,3.10
2018-07-03T03:28:42.510Z,3.10
2018-07-03T03:31:17.857Z,2.60
2018-07-03T03:33:56.372Z,2.93
2018-07-03T03:36:33.252Z,2.90
2018-07-03T03:39:10.004Z,2.70
2018-07-03T03:41:45.876Z,2.93
2018-07-03T03:44:21.432Z,2.90
2018-07-03T03:46:57.271Z,2.77
2018-07-03T03:49:34.356Z,3.00
2018-07-03T03:52:12.747Z,2.73
2018-07-03T03:54:47.703Z,3.20
2018-07-03T03:57:26.310Z,3.10
2018-07-03T04:00:03.582Z,3.17
2018-07-03T04:02:40.303Z,2.93
2018-07-03T04:05:16.007Z,2.90
2018-07-03T04:07:52.766Z,3.40
2018-07-03T04:10:28.450Z,2.93
2018-07-03T04:13:04.409Z,3.17
2018-07-03T04:15:40.667Z,3.13
2018-07-03T04:18:21.760Z,2.80
2018-07-03T04:20:56.671Z,3.27
2018-07-03T04:23:33.544Z,2.90
2018-07-03T04:26:10.016Z,3.13
2018-07-03T04:28:45.951Z,3.10
2018-07-03T04:31:21.196Z,3.60
2018-07-03T04:33:56.341Z,2.93
2018-07-03T04:36:32.597Z,3.40
2018-07-03T04:39:11.826Z,3.30
2018-07-03T04:41:46.893Z,3.20
2018-07-03T04:44:25.297Z,3.37
2018-07-03T04:47:03.714Z,3.07
2018-07-03T04:49:41.763Z,3.30
2018-07-03T04:52:16.470Z,3.13
2018-07-03T04:54:54.204Z,2.90
2018-07-03T04:57:30.374Z,3.13
2018-07-03T05:00:09.656Z,3.03
2018-07-03T05:02:47.306Z,2.83
2018-07-03T05:05:23.981Z,3.00
2018-07-03T05:08:00.396Z,3.13
2018-07-03T05:10:35.287Z,3.03
2018-07-03T05:13:11.215Z,2.70
2018-07-03T05:15:47.654Z,2.90
2018-07-03T05:18:23.035Z,3.00
2018-07-03T05:20:58.484Z,3.20
2018-07-03T05:23:35.469Z,2.90
2018-07-03T05:26:12.767Z,2.80
2018-07-03T05:28:48.502Z,2.83
2018-07-03T05:31:26.125Z,2.73
2018-07-03T05:34:03.573Z,2.97
2018-07-03T05:36:50.821Z,3.07
2018-07-03T05:39:28.177Z,3.07
2018-07-03T05:42:04.539Z,3.07
2018-07-03T05:44:41.634Z,2.90
2018-07-03T05:47:17.418Z,2.90
2018-07-03T05:49:53.045Z,2.93
2018-07-03T05:52:28.573Z,2.80
2018-07-03T05:55:06.154Z,2.73
2018-07-03T05:57:44.588Z,2.80
2018-07-03T06:00:20.430Z,2.83
2018-07-03T06:02:55.073Z,2.80
2018-07-03T06:05:30.899Z,2.80
2018-07-03T06:08:07.891Z,2.90
2018-07-03T06:10:44.123Z,2.80
2018-07-03T06:13:20.983Z,2.90
2018-07-03T06:15:56.794Z,2.83
2018-07-03T06:18:35.210Z,2.87
2018-07-03T06:21:13.394Z,3.00
2018-07-03T06:23:48.756Z,3.50
2018-07-03T06:26:26.852Z,3.10
2018-07-03T06:29:03.257Z,2.97
2018-07-03T06:31:39.362Z,3.03
2018-07-03T06:34:14.495Z,2.80
2018-07-03T06:36:51.997Z,2.60
2018-07-03T06:39:27.147Z,2.77
2018-07-03T06:42:02.796Z,3.37
2018-07-03T06:44:37.185Z,5.03
2018-07-03T06:47:13.472Z,3.37
2018-07-03T06:49:49.313Z,2.60
2018-07-03T06:52:25.372Z,2.53
2018-07-03T06:55:03.060Z,2.30
2018-07-03T06:57:39.819Z,2.20
2018-07-03T07:00:15.164Z,2.13
2018-07-03T07:02:52.248Z,2.23
2018-07-03T07:05:27.303Z,2.20
2018-07-03T07:08:03.252Z,2.30
2018-07-03T07:10:40.139Z,1.77
2018-07-03T07:13:15.452Z,2.20
2018-07-03T07:15:52.553Z,1.90
2018-07-03T07:18:28.962Z,1.90
2018-07-03T07:21:04.652Z,2.30
2018-07-03T07:23:41.526Z,1.93
2018-07-03T07:26:16.418Z,1.90
2018-07-03T07:28:53.565Z,2.43
2018-07-03T07:31:28.890Z,1.80
2018-07-03T07:34:05.152Z,1.87
2018-07-03T07:36:41.525Z,1.83
2018-07-03T07:39:17.375Z,1.90
2018-07-03T07:41:53.320Z,1.90
2018-07-03T07:44:30.298Z,1.90
2018-07-03T07:47:05.720Z,1.77
2018-07-03T07:49:42.773Z,1.97
2018-07-03T07:52:18.174Z,2.00
2018-07-03T07:54:55.666Z,1.77
2018-07-03T07:57:33.668Z,2.00
2018-07-03T08:00:09.820Z,1.90
2018-07-03T08:02:46.303Z,2.10
2018-07-03T08:05:23.638Z,1.70
2018-07-03T08:07:59.030Z,1.70
2018-07-03T08:10:35.603Z,1.80
2018-07-03T08:13:11.966Z,2.10
2018-07-03T08:15:47.499Z,1.70
2018-07-03T08:18:24.266Z,1.90
2018-07-03T08:21:01.770Z,1.80
2018-07-03T08:23:37.323Z,1.77
2018-07-03T08:26:14.050Z,1.90
2018-07-03T08:28:51.459Z,1.70
2018-07-03T08:31:26.078Z,1.90
2018-07-03T08:34:03.626Z,1.63
2018-07-03T08:36:39.235Z,1.70
2018-07-03T08:39:15.173Z,1.80
2018-07-03T08:41:50.942Z,1.70
2018-07-03T08:44:26.856Z,1.83
2018-07-03T08:47:02.252Z,1.73
2018-07-03T08:49:37.275Z,1.60
2018-07-03T08:52:13.335Z,1.60
2018-07-03T08:54:49.385Z,1.70
2018-07-03T08:57:24.607Z,1.40
2018-07-03T09:00:02.124Z,1.60
2018-07-03T09:02:37.855Z,1.70
2018-07-03T09:05:15.854Z,1.77
2018-07-03T09:07:53.853Z,1.70
2018-07-03T09:10:31.145Z,1.40
2018-07-03T09:13:07.102Z,1.70
2018-07-03T09:15:43.866Z,1.57
2018-07-03T09:18:19.027Z,1.50
2018-07-03T09:20:55.281Z,1.80
2018-07-03T09:23:29.675Z,1.60
2018-07-03T09:26:05.326Z,1.50
2018-07-03T09:28:42.434Z,1.30
2018-07-03T09:31:18.353Z,1.43
2018-07-03T09:33:54.165Z,1.63
2018-07-03T09:36:29.786Z,1.50
2018-07-03T09:39:09.315Z,1.50
2018-07-03T09:41:44.754Z,1.63
2018-07-03T09:44:21.322Z,1.43
2018-07-03T09:46:59.100Z,1.77
2018-07-03T09:49:35.175Z,1.50
2018-07-03T09:52:11.955Z,1.40
2018-07-03T09:54:47.134Z,1.70
2018-07-03T09:57:23.197Z,1.40
2018-07-03T09:59:58.914Z,1.50
2018-07-03T10:02:35.609Z,1.80
2018-07-03T10:05:12.973Z,1.60
2018-07-03T10:07:48.703Z,1.57
2018-07-03T10:10:24.715Z,1.80
2018-07-03T10:13:01.443Z,1.70
2018-07-03T10:15:36.973Z,1.70
2018-07-03T10:18:13.750Z,1.77
2018-07-03T10:20:48.992Z,1.70
2018-07-03T10:23:25.655Z,1.50
2018-07-03T10:26:02.256Z,1.70
2018-07-03T10:28:37.574Z,1.70
2018-07-03T10:31:14.438Z,1.80
2018-07-03T10:33:52.682Z,1.80
2018-07-03T10:36:28.932Z,1.80
2018-07-03T10:39:09.992Z,1.63
2018-07-03T10:41:45.736Z,1.80
2018-07-03T10:44:24.166Z,1.40
2018-07-03T10:47:00.424Z,1.60
2018-07-03T10:49:35.658Z,1.70
2018-07-03T10:52:14.338Z,2.07
2018-07-03T10:54:50.549Z,1.87
2018-07-03T10:57:30.377Z,1.80
2018-07-03T11:00:06.864Z,1.80
2018-07-03T11:02:43.424Z,1.80
2018-07-03T11:05:25.740Z,2.03
2018-07-03T11:08:03.513Z,1.70
2018-07-03T11:10:41.216Z,1.90
2018-07-03T11:13:16.747Z,1.80
2018-07-03T11:15:53.815Z,1.90
2018-07-03T11:18:29.286Z,1.80
2018-07-03T11:21:05.335Z,1.93
2018-07-03T11:23:42.130Z,1.80
2018-07-03T11:26:17.691Z,1.77
2018-07-03T11:28:55.883Z,1.80
2018-07-03T11:31:34.192Z,1.90
2018-07-03T11:34:12.083Z,1.97
2018-07-03T11:36:47.870Z,1.77
2018-07-03T11:39:25.227Z,1.90
2018-07-03T11:42:02.375Z,1.70
2018-07-03T11:44:38.043Z,1.70
2018-07-03T11:47:13.795Z,1.80
2018-07-03T11:49:49.241Z,1.80
2018-07-03T11:52:25.704Z,2.00
2018-07-03T11:55:03.398Z,1.70
2018-07-03T11:57:39.267Z,1.93
2018-07-03T12:00:15.419Z,2.00
2018-07-03T12:02:54.655Z,1.90
2018-07-03T12:05:31.237Z,1.70
2018-07-03T12:08:07.484Z,1.87
2018-07-03T12:10:44.667Z,1.80
2018-07-03T12:13:20.515Z,2.10
2018-07-03T12:15:56.779Z,2.00
2018-07-03T12:18:39.482Z,2.07
2018-07-03T12:21:16.545Z,2.17
2018-07-03T12:23:54.164Z,2.40
2018-07-03T12:26:33.070Z,2.50
2018-07-03T12:29:09.580Z,3.00
2018-07-03T12:31:45.094Z,3.60
2018-07-03T12:34:23.179Z,3.10
2018-07-03T12:36:58.858Z,3.20
2018-07-03T12:39:37.170Z,3.77
2018-07-03T12:42:14.342Z,3.23
2018-07-03T12:44:51.526Z,3.70
2018-07-03T12:47:27.050Z,3.47
2018-07-03T12:50:05.093Z,3.33
2018-07-03T12:52:43.227Z,3.50
2018-07-03T12:55:19.431Z,4.10
2018-07-03T12:57:54.590Z,3.97
2018-07-03T13:00:31.395Z,4.30
2018-07-03T13:03:08.028Z,3.73
2018-07-03T13:05:46.534Z,3.80
2018-07-03T13:08:23.640Z,4.10
2018-07-03T13:10:59.253Z,3.60
2018-07-03T13:13:35.114Z,3.90
2018-07-03T13:16:13.863Z,3.60
2018-07-03T13:18:50.422Z,3.80
2018-07-03T13:21:25.627Z,3.83
2018-07-03T13:24:03.961Z,3.90
2018-07-03T13:26:40.003Z,4.00
2018-07-03T13:29:15.787Z,4.00
2018-07-03T13:31:53.262Z,3.97
2018-07-03T13:34:29.324Z,3.30
2018-07-03T13:37:05.289Z,3.80
2018-07-03T13:39:42.244Z,3.90
2018-07-03T13:42:19.322Z,3.70
2018-07-03T13:44:56.190Z,3.90
2018-07-03T13:47:32.162Z,3.90
2018-07-03T13:50:11.003Z,3.70
2018-07-03T13:52:46.345Z,3.93
2018-07-03T13:55:24.343Z,4.03
2018-07-03T13:58:00.904Z,4.30
2018-07-03T14:00:36.250Z,4.10
2018-07-03T14:03:13.013Z,4.40
2018-07-03T14:05:49.185Z,4.20
2018-07-03T14:08:26.547Z,4.53
2018-07-03T14:11:02.718Z,4.50
2018-07-03T14:13:38.577Z,4.70
2018-07-03T14:16:14.812Z,4.67
2018-07-03T14:18:50.431Z,4.40
2018-07-03T14:21:26.635Z,5.00
2018-07-03T14:24:03.720Z,4.77
2018-07-03T14:26:43.347Z,4.93
2018-07-03T14:29:19.874Z,4.77
2018-07-03T14:31:56.494Z,4.80
2018-07-03T14:34:32.650Z,5.10
2018-07-03T14:37:08.908Z,5.13
2018-07-03T14:39:45.814Z,5.10
2018-07-03T14:42:23.794Z,4.70
2018-07-03T14:45:01.480Z,5.20
2018-07-03T14:47:36.346Z,4.83
2018-07-03T14:50:15.240Z,5.10
2018-07-03T14:52:52.829Z,5.40
2018-07-03T14:55:28.795Z,5.13
2018-07-03T14:58:06.557Z,5.10
2018-07-03T15:00:43.368Z,5.03
2018-07-03T15:03:18.717Z,4.83
2018-07-03T15:05:56.404Z,5.37
2018-07-03T15:08:34.593Z,5.10
2018-07-03T15:11:10.575Z,5.17
2018-07-03T15:13:48.820Z,4.80
2018-07-03T15:16:26.034Z,5.23
2018-07-03T15:19:12.923Z,5.07
2018-07-03T15:21:50.337Z,5.40
2018-07-03T15:24:26.733Z,5.40
2018-07-03T15:27:04.303Z,5.30
2018-07-03T15:29:40.264Z,5.10
2018-07-03T15:32:15.902Z,4.80
2018-07-03T15:34:52.062Z,5.27
2018-07-03T15:37:28.311Z,5.03
2018-07-03T15:40:04.288Z,5.10
2018-07-03T15:42:39.750Z,4.63
2018-07-03T15:45:15.459Z,4.63
2018-07-03T15:47:51.956Z,4.73
2018-07-03T15:50:27.494Z,4.67
2018-07-03T15:53:03.762Z,4.50
2018-07-03T15:55:41.357Z,4.03
2018-07-03T15:58:16.643Z,3.90
2018-07-03T16:00:54.447Z,4.20
2018-07-03T16:05:56.549Z,3.90
2018-07-03T16:08:54.652Z,3.70
2018-07-03T16:11:31.533Z,3.73
2018-07-03T16:14:06.745Z,4.00
2018-07-03T16:16:44.946Z,3.77
2018-07-03T16:19:25.541Z,3.50
2018-07-03T16:22:03.007Z,3.60
2018-07-03T16:24:41.124Z,3.70
2018-07-03T16:27:16.351Z,3.90
2018-07-03T16:29:53.320Z,3.97
2018-07-03T16:32:31.557Z,3.60
2018-07-03T16:35:07.009Z,3.30
2018-07-03T16:37:44.663Z,3.67
2018-07-03T16:40:22.196Z,3.60
2018-07-03T16:42:57.675Z,3.37
2018-07-03T16:45:35.535Z,3.70
2018-07-03T16:48:11.701Z,3.57
2018-07-03T16:50:47.022Z,3.20
2018-07-03T16:53:23.343Z,3.67
2018-07-03T16:55:58.791Z,3.20
2018-07-03T16:58:34.104Z,3.17
2018-07-03T17:01:10.839Z,3.00
2018-07-03T17:03:45.974Z,2.90
2018-07-03T17:06:23.138Z,2.90
2018-07-03T17:08:58.490Z,3.03
2018-07-03T17:11:34.875Z,3.50
2018-07-03T17:14:12.627Z,3.40
2018-07-03T17:16:48.295Z,3.83
2018-07-03T17:19:30.709Z,3.20
2018-07-03T17:22:07.048Z,3.50
2018-07-03T17:24:43.330Z,3.00
2018-07-03T17:27:18.578Z,3.00
2018-07-03T17:29:54.525Z,3.60
2018-07-03T17:32:29.977Z,3.23
2018-07-03T17:35:06.213Z,3.10
2018-07-03T17:37:42.805Z,2.80
2018-07-03T17:40:30.014Z,3.00
2018-07-03T17:46:15.643Z,3.17
2018-07-03T17:48:53.923Z,2.97
2018-07-03T17:51:29.484Z,3.90
2018-07-03T17:54:05.738Z,3.00
2018-07-03T17:56:42.702Z,3.20
2018-07-03T17:59:18.079Z,3.07
2018-07-03T18:01:54.619Z,3.33
2018-07-03T18:04:29.539Z,3.03
2018-07-03T18:07:06.114Z,3.20
2018-07-03T18:09:42.588Z,3.20
2018-07-03T18:12:20.092Z,3.43
2018-07-03T18:14:56.555Z,3.70
2018-07-03T18:17:33.219Z,3.50
2018-07-03T18:20:08.678Z,3.40
2018-07-03T18:22:44.831Z,3.37
2018-07-03T18:25:20.475Z,3.47
2018-07-03T18:27:56.727Z,3.30
2018-07-03T18:30:34.119Z,3.53
2018-07-03T18:33:09.764Z,3.17
2018-07-03T18:35:46.036Z,3.30
2018-07-03T18:38:23.514Z,3.90
2018-07-03T18:40:59.980Z,4.00
2018-07-03T18:43:38.182Z,4.37
2018-07-03T18:46:14.453Z,4.47
2018-07-03T18:48:49.742Z,3.90
2018-07-03T18:51:29.024Z,4.10
2018-07-03T18:54:05.402Z,3.93
2018-07-03T18:56:40.542Z,3.80
2018-07-03T18:59:16.682Z,4.10
2018-07-03T19:01:54.086Z,3.90
2018-07-03T19:04:30.969Z,4.23
2018-07-03T19:07:06.078Z,3.97
2018-07-03T19:09:43.995Z,4.70
2018-07-03T19:12:19.424Z,4.10
2018-07-03T19:14:55.078Z,4.07
2018-07-03T19:17:32.066Z,4.50
2018-07-03T19:20:07.614Z,4.60
2018-07-03T19:22:44.673Z,5.07
2018-07-03T19:25:20.823Z,4.73
2018-07-03T19:27:56.636Z,4.60
2018-07-03T19:30:34.077Z,5.43
2018-07-03T19:33:09.630Z,5.13
2018-07-03T19:35:46.606Z,5.40
2018-07-03T19:38:23.164Z,5.07
2018-07-03T19:40:59.233Z,5.77
2018-07-03T19:43:36.011Z,5.53
2018-07-03T19:46:13.260Z,5.50
2018-07-03T19:48:48.936Z,5.60
2018-07-03T19:51:26.317Z,5.40
2018-07-03T19:54:03.689Z,5.47
2018-07-03T19:56:38.940Z,5.90
2018-07-03T19:59:15.418Z,6.00
2018-07-03T20:01:53.950Z,6.17
2018-07-03T20:04:32.762Z,6.17
2018-07-03T20:07:13.649Z,6.17
2018-07-03T20:09:49.267Z,5.93
2018-07-03T20:12:27.079Z,5.73
2018-07-03T20:15:04.431Z,6.47
2018-07-03T20:17:43.089Z,7.30
2018-07-03T20:20:18.679Z,8.13
2018-07-03T20:22:54.069Z,6.90
2018-07-03T20:25:29.710Z,6.50
2018-07-03T20:28:13.183Z,6.20
2018-07-03T20:30:48.693Z,6.60
2018-07-03T20:33:26.690Z,6.10
2018-07-03T20:36:02.764Z,6.10
2018-07-03T20:38:38.470Z,6.30
2018-07-03T20:41:14.138Z,6.30
2018-07-03T20:43:49.065Z,6.40
2018-07-03T20:46:28.814Z,6.67
2018-07-03T20:49:05.762Z,5.90
2018-07-03T20:51:41.240Z,6.83
2018-07-03T20:54:16.875Z,7.10
2018-07-03T20:56:53.160Z,7.07
2018-07-03T20:59:28.462Z,7.03
2018-07-03T21:02:04.336Z,7.07
2018-07-03T21:04:39.742Z,6.80
2018-07-03T21:07:15.794Z,7.10
2018-07-03T21:09:52.427Z,7.40
2018-07-03T21:12:28.595Z,6.70
2018-07-03T21:15:04.377Z,7.40
2018-07-03T21:17:40.797Z,6.73
2018-07-03T21:20:17.069Z,7.03
2018-07-03T21:22:53.433Z,7.30
2018-07-03T21:25:28.754Z,6.93
2018-07-03T21:28:05.956Z,6.90
2018-07-03T21:30:45.034Z,7.43
2018-07-03T21:33:20.836Z,7.67
2018-07-03T21:35:56.545Z,7.63
2018-07-03T21:38:34.390Z,7.53
2018-07-03T21:41:11.440Z,6.73
2018-07-03T21:43:47.095Z,7.97
2018-07-03T21:46:26.945Z,7.40
2018-07-03T21:49:03.898Z,7.53
2018-07-03T21:51:43.470Z,7.80
2018-07-03T21:54:20.546Z,7.77
2018-07-03T21:56:56.908Z,7.40
2018-07-03T21:59:35.513Z,7.43
2018-07-03T22:02:13.231Z,7.40
2018-07-03T22:04:48.659Z,7.40
2018-07-03T22:07:26.533Z,7.53
2018-07-03T22:10:03.545Z,7.13
2018-07-03T22:12:39.106Z,7.27
2018-07-03T22:15:16.503Z,8.17
2018-07-03T22:17:53.462Z,7.70
2018-07-03T22:20:29.922Z,7.73
2018-07-03T22:23:05.682Z,7.43
2018-07-03T22:25:43.874Z,7.37
2018-07-03T22:28:18.907Z,7.40
2018-07-03T22:30:55.390Z,7.53
2018-07-03T22:33:31.939Z,7.23
2018-07-03T22:36:07.183Z,7.17
2018-07-03T22:38:42.799Z,7.33
2018-07-03T22:41:18.167Z,8.13
2018-07-03T22:43:54.952Z,7.57
2018-07-03T22:46:31.622Z,7.43
2018-07-03T22:49:07.682Z,7.70
2018-07-03T22:51:44.746Z,6.93
2018-07-03T22:54:20.381Z,7.13
2018-07-03T22:56:57.395Z,7.00
2018-07-03T22:59:34.178Z,7.13
2018-07-03T23:02:10.318Z,7.47
2018-07-03T23:04:45.757Z,7.50
2018-07-03T23:07:23.448Z,6.87
2018-07-03T23:09:59.269Z,7.03
2018-07-03T23:12:35.053Z,7.30
2018-07-03T23:15:11.519Z,7.00
2018-07-03T23:17:47.697Z,6.73
2018-07-03T23:20:24.573Z,6.57
2018-07-03T23:22:59.628Z,7.10
2018-07-03T23:25:37.203Z,6.83
2018-07-03T23:28:14.274Z,7.60
2018-07-03T23:30:49.611Z,7.77
2018-07-03T23:33:25.155Z,7.53
2018-07-03T23:36:03.072Z,7.40
2018-07-03T23:38:38.408Z,7.47
2018-07-03T23:41:15.066Z,7.47
2018-07-03T23:43:51.609Z,7.60
2018-07-03T23:46:37.438Z,7.43
2018-07-03T23:49:24.350Z,7.90
2018-07-03T23:52:11.267Z,8.03
2018-07-03T23:54:57.766Z,8.17
2018-07-03T23:57:46.499Z,7.30
